Airfield :
LOGIN :

Register | Disclaimer

   EN    FR    IT 

 










Legend :    VFR   Marginal VFR   IFR   Intensive IFR   Very Intensive IFR
Visi :
Ceiling :
>= 8 km
>= 3000ft
5 to 8 km
1000 to 3000 ft
1500m to 5 km
500 to 1000 ft
800 to 1500m
200 to 500 ft
< 800m
< 200 ft
Symbols :   Thunderstorms  Fog  Heavy snow  Heavy precipitations  Wind > 20 kt
SIGMETs :     Misc.  Thunderstorms  Icing  Turbulence  Mountain Waves  Volcanic Ashes







- Airport Elevation : 876 ft
- IATA code : MBX


LJMB - Maribor

EXPIRED METARs :
  • 241430Z 18010KT 9999 FEW040 33/18 Q1014
  • 241400Z 18011KT 9999 FEW036 33/18 Q1014
  • 241330Z 19009KT 140V230 9999 FEW036 32/18 Q1014
  • 241300Z 20008KT 9999 FEW036 32/16 Q1014
  • 241230Z 20006KT 140V240 9999 FEW036 30/18 Q1015
  • 241200Z 20007KT 140V240 9999 FEW036 31/18 Q1015

Expired Forecast.
No reported NOTAMs for that airfield.
1 SIGMET reported for the Ljubljana FIR (LJLA) :
 
Frequent thunderstorms
LJLA SIGMET 1 VALID 250000/250300 LJLJ
LJLA LJUBLJANA FIR FRQ TS OBS WI N4635 E01423 - N4715 E01529 - N4654 E01558 - N4620 E01447 - N4635 E01423 TOP FL400 MOV ESE 15KT NC=



MET'MAP, your aeronautical weather chart ! - Copyright ORBIFLY December 2007 - Disclaimer

ORBIFLY MET'MAP TEAM :

Programming & Development : Alexandra Zaïnal
Concept & Development : Baudouin d'Aumeries
Co-Development & Prog : Marc-Olivier Méhu
Technical & hardware support : Manuel Goepfert

Contact : metmap@orbifly.com




SOURCES & CREDITS :

   NOAA